Huvudsida
METAR-TAF:

METAR-TAF

Flygplatser :

Leknes flygplats

Leknes, Norge

latitud: 68-09N, longitud: 013-37E, höjd: 2 m

Aktuellt väderrapport

Denna rapport gjordes för 10 minuter sedan, klockan 19:20 UTC
Vind 9 kt från syd, varierande mellan syd/sydost och sydväst
Temperatur 11°C
Fuktighet 76%
Tryck 1012 hPa
Sikt 10 km eller mer
Spridda moln på en höjd av 2000 ft
Brutna moln på en höjd av 3000 ft

METAR: ENLK 251920Z 19009KT 160V220 9999 SCT020 BKN030 11/07 Q1012

Tid: 21:30 (19:30 UTC)


TAF: saknas

Aktuella väderrapporter och prognoser från 4000 flygplatser (METAR- och TAF-rapporter).

De tillgängliga stationerna syns som gula och röda prickar på kartan.

För musen över prickarna för att se namnen på stationerna.

Klicka sedan för att få väderrapporter och prognoser.

För att ändra kartan: Klicka på de gröna knapparna med ett svart kors på för att zooma in; den gröna knappen med ett streck på för att zooma ut; eller på de gröna pilarna för angränsande kartor.


METAR-TAF: